JST987 YPPH-YSSY
Flight info
| Callsign | JST987 |
|---|---|
| Flight time | N/A |
| Altitude | 35000 |
| Route | PH H18 MUBID J21 BORLI H205 CULIN Y59 RIVET |
| Aircraft | A21N/M-SDE2E3FGHIRWXY/LB1 |
Departure
| Time | N/A |
|---|---|
| Airport | Perth International Airport (YPPH) |
Arrival
| Time | 2026-04-30 20:25 |
|---|---|
| Airport | Sydney Kingsford Smith International Airport (YSSY) |
| Time | Latitude | Longitude | Altitude | Speed | Heading |
|---|---|---|---|---|---|
| 2026-04-30 17:39 | -32.35571 | 126.31904 | 34926 ft | 524 kts | 93° |
| 2026-04-30 17:42 | -32.40133 | 126.74585 | 34927 ft | 522 kts | 93° |
| 2026-04-30 17:43 | -32.42344 | 126.95857 | 34920 ft | 520 kts | 93° |
| 2026-04-30 17:44 | -32.44957 | 127.21374 | 34919 ft | 520 kts | 93° |
| 2026-04-30 17:47 | -32.48761 | 127.59488 | 34922 ft | 517 kts | 93° |
| 2026-04-30 17:48 | -32.51634 | 127.89067 | 34921 ft | 513 kts | 93° |
| 2026-04-30 17:50 | -32.54816 | 128.22843 | 34916 ft | 518 kts | 94° |
| 2026-04-30 17:52 | -32.57140 | 128.48252 | 34932 ft | 516 kts | 93° |
| 2026-04-30 17:54 | -32.60528 | 128.86263 | 34938 ft | 514 kts | 93° |
| 2026-04-30 17:56 | -32.63440 | 129.19940 | 34928 ft | 513 kts | 93° |
| 2026-04-30 17:58 | -32.65534 | 129.45254 | 34932 ft | 514 kts | 92° |
| 2026-04-30 18:00 | -32.68276 | 129.79011 | 34933 ft | 514 kts | 92° |
| 2026-04-30 18:01 | -32.69940 | 130.00020 | 34932 ft | 512 kts | 92° |
| 2026-04-30 18:02 | -32.71878 | 130.25168 | 34936 ft | 510 kts | 92° |
| 2026-04-30 18:04 | -32.73765 | 130.50206 | 34917 ft | 507 kts | 92° |
| 2026-04-30 18:06 | -32.76180 | 130.83391 | 34933 ft | 505 kts | 91° |
| 2026-04-30 18:08 | -32.78156 | 131.11077 | 34934 ft | 504 kts | 91° |
| 2026-04-30 18:10 | -32.80392 | 131.44336 | 34928 ft | 505 kts | 92° |
| 2026-04-30 18:11 | -32.82278 | 131.73463 | 34930 ft | 506 kts | 91° |
| 2026-04-30 18:13 | -32.83608 | 131.94346 | 34943 ft | 506 kts | 91° |
| 2026-04-30 18:14 | -32.84904 | 132.15248 | 34933 ft | 507 kts | 91° |
| 2026-04-30 18:15 | -32.86396 | 132.40340 | 34944 ft | 506 kts | 91° |
| 2026-04-30 18:16 | -32.87371 | 132.57049 | 34945 ft | 506 kts | 91° |
| 2026-04-30 18:17 | -32.87848 | 132.65404 | 34937 ft | 506 kts | 91° |
| 2026-04-30 18:18 | -32.88562 | 132.77925 | 34958 ft | 505 kts | 91° |
| 2026-04-30 18:18 | -32.89029 | 132.86209 | 34959 ft | 505 kts | 91° |
| 2026-04-30 18:19 | -32.89480 | 132.94556 | 34955 ft | 505 kts | 91° |
| 2026-04-30 18:19 | -32.89940 | 133.02899 | 34936 ft | 505 kts | 91° |
| 2026-04-30 18:20 | -32.90386 | 133.11241 | 34959 ft | 505 kts | 91° |
| 2026-04-30 18:20 | -32.90820 | 133.19576 | 34963 ft | 504 kts | 91° |
| 2026-04-30 18:21 | -32.91254 | 133.27902 | 34956 ft | 504 kts | 91° |
| 2026-04-30 18:21 | -32.91689 | 133.36226 | 34956 ft | 504 kts | 91° |
| 2026-04-30 18:22 | -32.92111 | 133.44555 | 34945 ft | 504 kts | 91° |
| 2026-04-30 18:22 | -32.92733 | 133.56984 | 34978 ft | 503 kts | 91° |
| 2026-04-30 18:23 | -32.93148 | 133.65294 | 34950 ft | 503 kts | 91° |
| 2026-04-30 18:23 | -32.93554 | 133.73617 | 34963 ft | 503 kts | 91° |
| 2026-04-30 18:24 | -32.94154 | 133.86091 | 34959 ft | 503 kts | 90° |
| 2026-04-30 18:25 | -32.94537 | 133.94411 | 34995 ft | 503 kts | 90° |
| 2026-04-30 18:25 | -32.95113 | 134.06887 | 34983 ft | 503 kts | 90° |
| 2026-04-30 18:26 | -32.95680 | 134.19357 | 34981 ft | 503 kts | 90° |
| 2026-04-30 18:27 | -32.96258 | 134.31835 | 34998 ft | 503 kts | 90° |
| 2026-04-30 18:28 | -32.96779 | 134.44304 | 34994 ft | 502 kts | 90° |
| 2026-04-30 18:28 | -32.97310 | 134.56715 | 35009 ft | 502 kts | 90° |
| 2026-04-30 18:29 | -32.97989 | 134.73328 | 35033 ft | 502 kts | 90° |
| 2026-04-30 18:30 | -32.98638 | 134.89928 | 35027 ft | 502 kts | 90° |
| 2026-04-30 18:31 | -32.99124 | 135.02368 | 35020 ft | 501 kts | 90° |
| 2026-04-30 18:32 | -32.99586 | 135.14792 | 35032 ft | 500 kts | 90° |
| 2026-04-30 18:33 | -33.00031 | 135.27221 | 35041 ft | 500 kts | 90° |
| 2026-04-30 18:33 | -33.00454 | 135.39649 | 35040 ft | 501 kts | 90° |
| 2026-04-30 18:34 | -33.00867 | 135.52078 | 35046 ft | 501 kts | 90° |
| 2026-04-30 18:35 | -33.01139 | 135.60312 | 35053 ft | 500 kts | 90° |
| 2026-04-30 18:35 | -33.01397 | 135.68591 | 35058 ft | 500 kts | 90° |
| 2026-04-30 18:36 | -33.01781 | 135.81002 | 35059 ft | 500 kts | 90° |
| 2026-04-30 18:37 | -33.02154 | 135.93414 | 35073 ft | 500 kts | 90° |
| 2026-04-30 18:37 | -33.02397 | 136.01690 | 35078 ft | 500 kts | 90° |
| 2026-04-30 18:38 | -33.02638 | 136.09965 | 35082 ft | 499 kts | 90° |
| 2026-04-30 18:38 | -33.02865 | 136.18239 | 35088 ft | 499 kts | 90° |
| 2026-04-30 18:39 | -33.03091 | 136.26512 | 35085 ft | 499 kts | 90° |
| 2026-04-30 18:39 | -33.03306 | 136.34784 | 35093 ft | 500 kts | 90° |
| 2026-04-30 18:40 | -33.03522 | 136.43060 | 35098 ft | 499 kts | 90° |
| 2026-04-30 18:40 | -33.03730 | 136.51327 | 35102 ft | 499 kts | 90° |
| 2026-04-30 18:41 | -33.03939 | 136.59541 | 35109 ft | 498 kts | 90° |
| 2026-04-30 18:41 | -33.04126 | 136.67772 | 35109 ft | 497 kts | 90° |
| 2026-04-30 18:42 | -33.04324 | 136.76023 | 35098 ft | 499 kts | 90° |
| 2026-04-30 18:42 | -33.04595 | 136.88387 | 35108 ft | 497 kts | 90° |
| 2026-04-30 18:45 | -33.05511 | 137.33620 | 35116 ft | 498 kts | 90° |
| 2026-04-30 18:46 | -33.05668 | 137.41865 | 35115 ft | 496 kts | 90° |
| 2026-04-30 18:46 | -33.05812 | 137.50068 | 35114 ft | 495 kts | 90° |
| 2026-04-30 18:47 | -33.06849 | 137.58185 | 35114 ft | 497 kts | 102° |
| 2026-04-30 18:47 | -33.08332 | 137.66156 | 35117 ft | 494 kts | 102° |
| 2026-04-30 18:48 | -33.09799 | 137.74165 | 35126 ft | 494 kts | 102° |
| 2026-04-30 18:48 | -33.11258 | 137.82176 | 35123 ft | 493 kts | 102° |
| 2026-04-30 18:49 | -33.12725 | 137.90179 | 35126 ft | 495 kts | 102° |
| 2026-04-30 18:49 | -33.14166 | 137.98207 | 35139 ft | 495 kts | 102° |
| 2026-04-30 18:50 | -33.15593 | 138.06224 | 35139 ft | 493 kts | 102° |
| 2026-04-30 18:50 | -33.17022 | 138.14228 | 35143 ft | 493 kts | 102° |
| 2026-04-30 18:51 | -33.18443 | 138.22249 | 35147 ft | 493 kts | 102° |
| 2026-04-30 18:51 | -33.19855 | 138.30264 | 35159 ft | 494 kts | 102° |
| 2026-04-30 18:52 | -33.21268 | 138.38289 | 35169 ft | 493 kts | 102° |
| 2026-04-30 18:52 | -33.22678 | 138.46307 | 35176 ft | 493 kts | 102° |
| 2026-04-30 18:53 | -33.24066 | 138.54265 | 35184 ft | 493 kts | 102° |
| 2026-04-30 18:53 | -33.25470 | 138.62279 | 35188 ft | 493 kts | 102° |
| 2026-04-30 18:54 | -33.26861 | 138.70304 | 35185 ft | 493 kts | 102° |
| 2026-04-30 18:54 | -33.28245 | 138.78334 | 35195 ft | 493 kts | 102° |
| 2026-04-30 18:55 | -33.29621 | 138.86372 | 35196 ft | 493 kts | 102° |
| 2026-04-30 18:55 | -33.31451 | 138.97050 | 35197 ft | 492 kts | 102° |
| 2026-04-30 18:56 | -33.33512 | 139.09077 | 35202 ft | 492 kts | 102° |
| 2026-04-30 18:57 | -33.35553 | 139.21127 | 35197 ft | 493 kts | 102° |
| 2026-04-30 18:57 | -33.36912 | 139.29164 | 35200 ft | 493 kts | 101° |
| 2026-04-30 18:58 | -33.38924 | 139.41222 | 35198 ft | 493 kts | 101° |
| 2026-04-30 18:59 | -33.40834 | 139.53313 | 35191 ft | 493 kts | 101° |
| 2026-04-30 19:00 | -33.43349 | 139.69442 | 35198 ft | 493 kts | 101° |
| 2026-04-30 19:01 | -33.45845 | 139.85569 | 35201 ft | 492 kts | 101° |
| 2026-04-30 19:02 | -33.47699 | 139.97627 | 35203 ft | 493 kts | 101° |
| 2026-04-30 19:03 | -33.50154 | 140.13768 | 35200 ft | 493 kts | 101° |
| 2026-04-30 19:04 | -33.52599 | 140.29937 | 35202 ft | 493 kts | 101° |
| 2026-04-30 19:05 | -33.55030 | 140.46123 | 35204 ft | 493 kts | 101° |
| 2026-04-30 19:06 | -33.57425 | 140.62328 | 35207 ft | 494 kts | 100° |
| 2026-04-30 19:06 | -33.59191 | 140.74492 | 35213 ft | 494 kts | 101° |
| 2026-04-30 19:07 | -33.60973 | 140.86661 | 35213 ft | 494 kts | 101° |
| 2026-04-30 19:08 | -33.63316 | 141.02839 | 35219 ft | 492 kts | 101° |
| 2026-04-30 19:09 | -33.65061 | 141.14962 | 35222 ft | 490 kts | 101° |
| 2026-04-30 19:09 | -33.66206 | 141.23021 | 35220 ft | 489 kts | 101° |
| 2026-04-30 19:10 | -33.68494 | 141.39126 | 35224 ft | 488 kts | 101° |
| 2026-04-30 19:11 | -33.70180 | 141.51168 | 35230 ft | 488 kts | 101° |
| 2026-04-30 19:12 | -33.71289 | 141.59156 | 35232 ft | 488 kts | 101° |
| 2026-04-30 19:12 | -33.72406 | 141.67198 | 35230 ft | 488 kts | 101° |
| 2026-04-30 19:13 | -33.74623 | 141.83272 | 35243 ft | 486 kts | 100° |
| 2026-04-30 19:14 | -33.75718 | 141.91270 | 35242 ft | 484 kts | 100° |
| 2026-04-30 19:14 | -33.76808 | 141.99255 | 35243 ft | 485 kts | 100° |
| 2026-04-30 19:15 | -33.77889 | 142.07250 | 35248 ft | 483 kts | 100° |
| 2026-04-30 19:15 | -33.79491 | 142.19188 | 35250 ft | 482 kts | 99° |
| 2026-04-30 19:16 | -33.80558 | 142.27145 | 35246 ft | 482 kts | 100° |
| 2026-04-30 19:17 | -33.82144 | 142.39066 | 35257 ft | 481 kts | 99° |
| 2026-04-30 19:17 | -33.83713 | 142.50940 | 35260 ft | 481 kts | 99° |
| 2026-04-30 19:18 | -33.85260 | 142.62818 | 35260 ft | 479 kts | 99° |
| 2026-04-30 19:19 | -33.86289 | 142.70731 | 35266 ft | 479 kts | 99° |
| 2026-04-30 19:19 | -33.87821 | 142.82594 | 35271 ft | 477 kts | 99° |
| 2026-04-30 19:20 | -33.88831 | 142.90491 | 35274 ft | 477 kts | 99° |
| 2026-04-30 19:21 | -33.90339 | 143.02334 | 35280 ft | 477 kts | 99° |
| 2026-04-30 19:22 | -33.92323 | 143.18099 | 35284 ft | 476 kts | 99° |
| 2026-04-30 19:23 | -33.95266 | 143.41763 | 35283 ft | 476 kts | 99° |
| 2026-04-30 19:24 | -33.96716 | 143.53593 | 35292 ft | 475 kts | 99° |
| 2026-04-30 19:25 | -33.99107 | 143.73290 | 35295 ft | 475 kts | 99° |
| 2026-04-30 19:26 | -34.00995 | 143.89022 | 35296 ft | 474 kts | 99° |
| 2026-04-30 19:27 | -34.02391 | 144.00773 | 35298 ft | 474 kts | 98° |
| 2026-04-30 19:28 | -34.03783 | 144.12577 | 35299 ft | 474 kts | 98° |
| 2026-04-30 19:29 | -34.05619 | 144.28340 | 35305 ft | 475 kts | 98° |
| 2026-04-30 19:30 | -34.07441 | 144.44107 | 35307 ft | 475 kts | 98° |
| 2026-04-30 19:31 | -34.09237 | 144.59861 | 35314 ft | 473 kts | 98° |
| 2026-04-30 19:31 | -34.10564 | 144.71650 | 35316 ft | 473 kts | 98° |
| 2026-04-30 19:32 | -34.11447 | 144.79503 | 35323 ft | 470 kts | 98° |
| 2026-04-30 19:32 | -34.12319 | 144.87322 | 35328 ft | 470 kts | 98° |
| 2026-04-30 19:33 | -34.13177 | 144.95083 | 35325 ft | 470 kts | 98° |
| 2026-04-30 19:33 | -34.14034 | 145.02906 | 35325 ft | 469 kts | 98° |
| 2026-04-30 19:34 | -34.14886 | 145.10701 | 35330 ft | 468 kts | 98° |
| 2026-04-30 19:35 | -34.16161 | 145.22415 | 35335 ft | 469 kts | 98° |
| 2026-04-30 19:35 | -34.17003 | 145.30224 | 35339 ft | 468 kts | 97° |
| 2026-04-30 19:36 | -34.17838 | 145.38029 | 35342 ft | 468 kts | 97° |
| 2026-04-30 19:36 | -34.19080 | 145.49735 | 35342 ft | 468 kts | 97° |
| 2026-04-30 19:37 | -34.19902 | 145.57529 | 35343 ft | 467 kts | 97° |
| 2026-04-30 19:37 | -34.20722 | 145.65317 | 35343 ft | 467 kts | 97° |
| 2026-04-30 19:38 | -34.21535 | 145.73113 | 35348 ft | 467 kts | 97° |
| 2026-04-30 19:38 | -34.22339 | 145.80904 | 35349 ft | 467 kts | 96° |
| 2026-04-30 19:39 | -34.23140 | 145.88684 | 35354 ft | 466 kts | 96° |
| 2026-04-30 19:39 | -34.23937 | 145.96461 | 35355 ft | 466 kts | 96° |
| 2026-04-30 19:40 | -34.24721 | 146.04189 | 35356 ft | 466 kts | 96° |
| 2026-04-30 19:40 | -34.25822 | 146.11910 | 35364 ft | 466 kts | 100° |
| 2026-04-30 19:41 | -34.27066 | 146.19607 | 35363 ft | 466 kts | 100° |
| 2026-04-30 19:41 | -34.28301 | 146.27308 | 35371 ft | 466 kts | 100° |
| 2026-04-30 19:42 | -34.29337 | 146.33759 | 35371 ft | 466 kts | 99° |
| 2026-04-30 19:42 | -34.30555 | 146.41411 | 35375 ft | 467 kts | 99° |
| 2026-04-30 19:43 | -34.31777 | 146.49116 | 35374 ft | 467 kts | 99° |
| 2026-04-30 19:44 | -34.33608 | 146.60712 | 35377 ft | 468 kts | 99° |
| 2026-04-30 19:44 | -34.34821 | 146.68448 | 35381 ft | 468 kts | 99° |
| 2026-04-30 19:45 | -34.36027 | 146.76179 | 35387 ft | 468 kts | 99° |
| 2026-04-30 19:45 | -34.37235 | 146.83921 | 35385 ft | 468 kts | 99° |
| 2026-04-30 19:46 | -34.38433 | 146.91664 | 35387 ft | 468 kts | 99° |
| 2026-04-30 19:46 | -34.39628 | 146.99419 | 35393 ft | 468 kts | 99° |
| 2026-04-30 19:47 | -34.40820 | 147.07171 | 35397 ft | 468 kts | 99° |
| 2026-04-30 19:47 | -34.41996 | 147.14881 | 35397 ft | 468 kts | 99° |
| 2026-04-30 19:48 | -34.43180 | 147.22627 | 35405 ft | 468 kts | 99° |
| 2026-04-30 19:48 | -34.44356 | 147.30380 | 35411 ft | 468 kts | 99° |
| 2026-04-30 19:49 | -34.45523 | 147.38134 | 35408 ft | 468 kts | 99° |
| 2026-04-30 19:49 | -34.47266 | 147.49745 | 35422 ft | 467 kts | 99° |
| 2026-04-30 19:50 | -34.48421 | 147.57486 | 35420 ft | 467 kts | 99° |
| 2026-04-30 19:50 | -34.49569 | 147.65235 | 35421 ft | 467 kts | 99° |
| 2026-04-30 19:51 | -34.50712 | 147.72946 | 35431 ft | 464 kts | 99° |
| 2026-04-30 19:51 | -34.51846 | 147.80665 | 35433 ft | 464 kts | 99° |
| 2026-04-30 19:52 | -34.52972 | 147.88365 | 35438 ft | 464 kts | 99° |
| 2026-04-30 19:52 | -34.54098 | 147.96079 | 35445 ft | 463 kts | 99° |
| 2026-04-30 19:53 | -34.55208 | 148.03760 | 35448 ft | 462 kts | 99° |
| 2026-04-30 19:53 | -34.56318 | 148.11436 | 35448 ft | 462 kts | 99° |
| 2026-04-30 19:54 | -34.57413 | 148.19072 | 35459 ft | 462 kts | 99° |
| 2026-04-30 19:54 | -34.58513 | 148.26749 | 35460 ft | 462 kts | 99° |
| 2026-04-30 19:55 | -34.59608 | 148.34434 | 35466 ft | 462 kts | 99° |
| 2026-04-30 19:55 | -34.60697 | 148.42124 | 35475 ft | 462 kts | 99° |
| 2026-04-30 19:56 | -34.61781 | 148.49810 | 35472 ft | 462 kts | 99° |
| 2026-04-30 19:56 | -34.62862 | 148.57482 | 35475 ft | 462 kts | 99° |
| 2026-04-30 19:57 | -34.63936 | 148.65175 | 35486 ft | 462 kts | 99° |
| 2026-04-30 19:57 | -34.65007 | 148.72858 | 35495 ft | 462 kts | 99° |
| 2026-04-30 19:58 | -34.66072 | 148.80546 | 35498 ft | 462 kts | 99° |
| 2026-04-30 19:58 | -34.67130 | 148.88239 | 35505 ft | 462 kts | 99° |
| 2026-04-30 19:59 | -34.68186 | 148.95939 | 35509 ft | 462 kts | 99° |
| 2026-04-30 20:00 | -34.69763 | 149.07494 | 35513 ft | 462 kts | 99° |
| 2026-04-30 20:00 | -34.70811 | 149.15200 | 35522 ft | 462 kts | 99° |
| 2026-04-30 20:01 | -34.72363 | 149.26708 | 35527 ft | 462 kts | 99° |
| 2026-04-30 20:01 | -34.73266 | 149.34425 | 35523 ft | 461 kts | 92° |
| 2026-04-30 20:02 | -34.72479 | 149.42022 | 35515 ft | 452 kts | 71° |
| 2026-04-30 20:02 | -34.71251 | 149.45564 | 35534 ft | 458 kts | 62° |
| 2026-04-30 20:03 | -34.66696 | 149.55790 | 35525 ft | 459 kts | 61° |
| 2026-04-30 20:03 | -34.63701 | 149.62624 | 35385 ft | 453 kts | 62° |
| 2026-04-30 20:04 | -34.62220 | 149.66011 | 34393 ft | 459 kts | 62° |
| 2026-04-30 20:04 | -34.60714 | 149.69446 | 33262 ft | 464 kts | 61° |
| 2026-04-30 20:04 | -34.59196 | 149.72902 | 32404 ft | 463 kts | 61° |
| 2026-04-30 20:05 | -34.56162 | 149.79824 | 30554 ft | 465 kts | 61° |
| 2026-04-30 20:05 | -34.54632 | 149.83292 | 29387 ft | 468 kts | 61° |
| 2026-04-30 20:05 | -34.51543 | 149.90302 | 26980 ft | 474 kts | 61° |
| 2026-04-30 20:06 | -34.49981 | 149.93838 | 25850 ft | 477 kts | 61° |
| 2026-04-30 20:06 | -34.48416 | 149.97371 | 24944 ft | 474 kts | 61° |
| 2026-04-30 20:06 | -34.46861 | 150.00882 | 24166 ft | 472 kts | 61° |
| 2026-04-30 20:06 | -34.45315 | 150.04380 | 23282 ft | 470 kts | 61° |
| 2026-04-30 20:07 | -34.43775 | 150.07860 | 22505 ft | 467 kts | 61° |
| 2026-04-30 20:07 | -34.42240 | 150.11310 | 21855 ft | 462 kts | 61° |
| 2026-04-30 20:07 | -34.39217 | 150.18111 | 20466 ft | 455 kts | 62° |
| 2026-04-30 20:08 | -34.37723 | 150.21465 | 19809 ft | 451 kts | 62° |
| 2026-04-30 20:08 | -34.36238 | 150.24793 | 19128 ft | 448 kts | 62° |
| 2026-04-30 20:08 | -34.34761 | 150.28107 | 18385 ft | 447 kts | 62° |
| 2026-04-30 20:08 | -34.33290 | 150.31398 | 17649 ft | 442 kts | 62° |
| 2026-04-30 20:09 | -34.31845 | 150.34631 | 17046 ft | 431 kts | 62° |
| 2026-04-30 20:09 | -34.30433 | 150.37787 | 16464 ft | 424 kts | 61° |
| 2026-04-30 20:09 | -34.27650 | 150.43999 | 15332 ft | 416 kts | 61° |
| 2026-04-30 20:10 | -34.24931 | 150.50086 | 14296 ft | 408 kts | 61° |
| 2026-04-30 20:10 | -34.23586 | 150.53094 | 13654 ft | 406 kts | 61° |
| 2026-04-30 20:10 | -34.22245 | 150.56090 | 13019 ft | 404 kts | 61° |
| 2026-04-30 20:11 | -34.19614 | 150.61965 | 12105 ft | 384 kts | 61° |
| 2026-04-30 20:11 | -34.18366 | 150.64744 | 11852 ft | 368 kts | 61° |
| 2026-04-30 20:11 | -34.17166 | 150.67407 | 11652 ft | 354 kts | 61° |
| 2026-04-30 20:12 | -34.14929 | 150.72391 | 11315 ft | 327 kts | 61° |
| 2026-04-30 20:12 | -34.13863 | 150.74753 | 11173 ft | 314 kts | 60° |
| 2026-04-30 20:12 | -34.12837 | 150.77023 | 11029 ft | 302 kts | 60° |
| 2026-04-30 20:13 | -34.11847 | 150.79216 | 10783 ft | 295 kts | 61° |
| 2026-04-30 20:13 | -34.10866 | 150.81389 | 10379 ft | 295 kts | 60° |
| 2026-04-30 20:13 | -34.09885 | 150.83559 | 9957 ft | 293 kts | 61° |
| 2026-04-30 20:13 | -34.08918 | 150.85709 | 9594 ft | 290 kts | 61° |
| 2026-04-30 20:14 | -34.07961 | 150.87834 | 9216 ft | 287 kts | 60° |
| 2026-04-30 20:14 | -34.07013 | 150.89945 | 8856 ft | 284 kts | 60° |
| 2026-04-30 20:14 | -34.06121 | 150.91927 | 8513 ft | 282 kts | 60° |
| 2026-04-30 20:14 | -34.05187 | 150.93995 | 8179 ft | 278 kts | 60° |
| 2026-04-30 20:15 | -34.04269 | 150.96032 | 7823 ft | 276 kts | 60° |
| 2026-04-30 20:15 | -34.03431 | 150.98091 | 7493 ft | 273 kts | 70° |
| 2026-04-30 20:15 | -34.03201 | 151.00355 | 7110 ft | 275 kts | 95° |
| 2026-04-30 20:15 | -34.03835 | 151.02516 | 6750 ft | 278 kts | 120° |
| 2026-04-30 20:16 | -34.05095 | 151.04285 | 6379 ft | 278 kts | 132° |
| 2026-04-30 20:16 | -34.06454 | 151.05920 | 6085 ft | 274 kts | 133° |
| 2026-04-30 20:16 | -34.07873 | 151.07441 | 5970 ft | 274 kts | 144° |
| 2026-04-30 20:16 | -34.09642 | 151.08310 | 5972 ft | 278 kts | 164° |
| 2026-04-30 20:17 | -34.11542 | 151.08778 | 5992 ft | 279 kts | 167° |
| 2026-04-30 20:17 | -34.13446 | 151.09221 | 5999 ft | 279 kts | 167° |
| 2026-04-30 20:17 | -34.15347 | 151.09680 | 6000 ft | 279 kts | 166° |
| 2026-04-30 20:17 | -34.17247 | 151.10153 | 5998 ft | 279 kts | 166° |
| 2026-04-30 20:18 | -34.19136 | 151.10631 | 5907 ft | 274 kts | 166° |
| 2026-04-30 20:18 | -34.20975 | 151.11195 | 5500 ft | 272 kts | 154° |
| 2026-04-30 20:18 | -34.22493 | 151.12487 | 5066 ft | 266 kts | 129° |
| 2026-04-30 20:18 | -34.23408 | 151.14387 | 4665 ft | 261 kts | 105° |
| 2026-04-30 20:19 | -34.23614 | 151.16530 | 4263 ft | 257 kts | 83° |
| 2026-04-30 20:19 | -34.23361 | 151.17921 | 3994 ft | 255 kts | 69° |
| 2026-04-30 20:19 | -34.22027 | 151.20227 | 3531 ft | 250 kts | 39° |
| 2026-04-30 20:19 | -34.20557 | 151.21263 | 3367 ft | 241 kts | 24° |
| 2026-04-30 20:20 | -34.19112 | 151.22189 | 3240 ft | 230 kts | 34° |
| 2026-04-30 20:20 | -34.17764 | 151.23151 | 3050 ft | 223 kts | 18° |
| 2026-04-30 20:20 | -34.16232 | 151.23330 | 2979 ft | 223 kts | 355° |
| 2026-04-30 20:20 | -34.14711 | 151.22951 | 2983 ft | 224 kts | 341° |
| 2026-04-30 20:21 | -34.13212 | 151.22460 | 2990 ft | 223 kts | 349° |
| 2026-04-30 20:21 | -34.11704 | 151.22052 | 2969 ft | 216 kts | 349° |
| 2026-04-30 20:21 | -34.10267 | 151.21675 | 2792 ft | 207 kts | 348° |
| 2026-04-30 20:21 | -34.08876 | 151.21312 | 2535 ft | 202 kts | 348° |
| 2026-04-30 20:22 | -34.07511 | 151.20956 | 2277 ft | 200 kts | 348° |
| 2026-04-30 20:22 | -34.06196 | 151.20612 | 2066 ft | 190 kts | 348° |
| 2026-04-30 20:22 | -34.04947 | 151.20286 | 1798 ft | 179 kts | 348° |
| 2026-04-30 20:22 | -34.03771 | 151.19979 | 1569 ft | 167 kts | 348° |
| 2026-04-30 20:23 | -34.02682 | 151.19695 | 1346 ft | 148 kts | 348° |
| 2026-04-30 20:23 | -34.01736 | 151.19448 | 1119 ft | 136 kts | 348° |
| 2026-04-30 20:23 | -34.00811 | 151.19206 | 957 ft | 136 kts | 348° |
| 2026-04-30 20:23 | -33.99898 | 151.18967 | 759 ft | 133 kts | 347° |
| 2026-04-30 20:24 | -33.98995 | 151.18736 | 586 ft | 132 kts | 347° |
| 2026-04-30 20:24 | -33.98108 | 151.18503 | 414 ft | 131 kts | 346° |
| 2026-04-30 20:24 | -33.97227 | 151.18272 | 236 ft | 129 kts | 347° |
| 2026-04-30 20:24 | -33.96347 | 151.18049 | 67 ft | 128 kts | 347° |
| 2026-04-30 20:25 | -33.94892 | 151.17665 | 34 ft | 66 kts | 348° |
| 2026-04-30 20:25 | -33.94535 | 151.17571 | 35 ft | 49 kts | 349° |
| 2026-04-30 20:26 | -33.94002 | 151.17441 | 31 ft | 17 kts | 348° |
| 2026-04-30 20:26 | -33.93901 | 151.17511 | 33 ft | 12 kts | 77° |
| 2026-04-30 20:26 | -33.93879 | 151.17620 | 34 ft | 15 kts | 75° |
| 2026-04-30 20:27 | -33.93828 | 151.17756 | 35 ft | 7 kts | 28° |
| 2026-04-30 20:27 | -33.93696 | 151.17798 | 35 ft | 12 kts | 13° |
| 2026-04-30 20:28 | -33.93562 | 151.17831 | 35 ft | 8 kts | 11° |
| 2026-04-30 20:28 | -33.93526 | 151.17778 | 35 ft | 4 kts | 281° |
| 2026-04-30 20:29 | -33.93525 | 151.17771 | 35 ft | 0 kts | 279° |